Time;durP1;ratioP1;P1;durP2;ratioP2;P2;SDS_P1;SDS_P2;PMS_P1;PMS_P2;Temp;Humidity;BMP_temperature;BMP_pressure;BME280_temperature;BME280_humidity;BME280_pressure;Samples;Min_cycle;Max_cycle;Signal;HPM_P1;HPM_P2
2022/01/16 00:00:18;;;;;;;49.40;28.92;;;;;;;;;;5029790;28;20103;-85
2022/01/16 00:05:26;;;;;;;53.75;31.48;;;;;;;;;;5044958;28;20053;-84
2022/01/16 00:07:55;;;;;;;45.45;26.70;;;;;;;;;;5044966;28;20037;-84
2022/01/16 00:10:22;;;;;;;43.53;25.75;;;;;;;;;;5044494;28;20037;-81
2022/01/16 00:12:49;;;;;;;47.40;30.13;;;;;;;;;;5042061;28;20045;-80
2022/01/16 00:15:19;;;;;;;44.45;28.13;;;;;;;;;;5041565;28;20460;-80
2022/01/16 00:18:09;;;;;;;54.35;31.08;;;;;;;;;;5024882;28;20434;-81
2022/01/16 00:20:35;;;;;;;47.03;28.20;;;;;;;;;;5028283;28;20464;-83
2022/01/16 00:23:04;;;;;;;46.55;27.77;;;;;;;;;;5028913;28;20041;-83
2022/01/16 00:25:30;;;;;;;46.78;26.73;;;;;;;;;;5028974;28;20101;-83
2022/01/16 00:27:56;;;;;;;43.60;26.58;;;;;;;;;;5044339;28;20041;-82
2022/01/16 00:30:22;;;;;;;38.13;25.02;;;;;;;;;;5042373;28;20033;-82
2022/01/16 00:32:48;;;;;;;41.22;25.38;;;;;;;;;;5044775;28;20119;-83
2022/01/16 00:35:14;;;;;;;42.80;26.40;;;;;;;;;;5045176;28;20049;-82
2022/01/16 00:37:41;;;;;;;47.40;27.27;;;;;;;;;;5044735;28;20037;-84
2022/01/16 00:40:07;;;;;;;44.75;25.23;;;;;;;;;;5044048;28;20044;-81
2022/01/16 00:42:33;;;;;;;41.42;25.40;;;;;;;;;;5025355;28;20060;-82
2022/01/16 00:44:59;;;;;;;44.30;26.88;;;;;;;;;;5027196;28;20034;-83
2022/01/16 00:47:25;;;;;;;52.78;29.25;;;;;;;;;;5044396;28;20045;-83
2022/01/16 00:49:51;;;;;;;46.90;27.15;;;;;;;;;;5027732;28;20113;-83
2022/01/16 00:52:19;;;;;;;42.05;23.60;;;;;;;;;;5042642;28;20038;-78
2022/01/16 00:54:45;;;;;;;40.70;23.92;;;;;;;;;;5025423;28;20095;-81
2022/01/16 00:57:11;;;;;;;45.45;25.80;;;;;;;;;;5046873;28;20053;-82
2022/01/16 00:59:37;;;;;;;44.45;23.80;;;;;;;;;;5042246;28;20052;-79
2022/01/16 01:02:03;;;;;;;47.17;25.33;;;;;;;;;;5028899;28;20101;-82
2022/01/16 01:04:29;;;;;;;43.80;24.25;;;;;;;;;;5045144;28;20089;-81
2022/01/16 01:06:55;;;;;;;39.70;23.70;;;;;;;;;;5040073;28;20057;-82
2022/01/16 01:09:21;;;;;;;41.33;23.20;;;;;;;;;;5024940;28;20041;-85
2022/01/16 01:11:49;;;;;;;40.05;22.65;;;;;;;;;;5040968;28;20111;-82
2022/01/16 01:14:25;;;;;;;42.13;22.05;;;;;;;;;;5026875;28;20037;-84
2022/01/16 01:16:55;;;;;;;33.30;20.13;;;;;;;;;;5027651;28;20128;-81
2022/01/16 01:19:26;;;;;;;37.55;21.70;;;;;;;;;;5030865;28;20061;-82
2022/01/16 01:21:52;;;;;;;44.63;23.13;;;;;;;;;;5030756;28;20117;-82
2022/01/16 01:24:18;;;;;;;38.75;22.13;;;;;;;;;;5025415;28;20038;-83
2022/01/16 01:26:54;;;;;;;44.58;22.50;;;;;;;;;;5024714;28;20359;-85
2022/01/16 01:29:21;;;;;;;44.80;21.70;;;;;;;;;;5028173;28;20048;-85
2022/01/16 01:31:47;;;;;;;44.15;23.10;;;;;;;;;;5026619;28;20072;-85
2022/01/16 01:34:13;;;;;;;39.42;22.13;;;;;;;;;;5026657;28;20176;-84
2022/01/16 01:36:39;;;;;;;36.95;21.02;;;;;;;;;;5042412;28;20086;-83
2022/01/16 01:39:05;;;;;;;38.42;20.77;;;;;;;;;;5041527;28;20041;-82
2022/01/16 01:41:31;;;;;;;38.60;21.88;;;;;;;;;;5026222;28;20475;-82
2022/01/16 01:52:11;;;;;;;39.53;21.83;;;;;;;;;;5039106;28;20029;-80
2022/01/16 01:54:37;;;;;;;36.33;21.60;;;;;;;;;;5022115;28;20073;-81
2022/01/16 01:57:03;;;;;;;40.00;22.73;;;;;;;;;;5025154;28;20054;-80
2022/01/16 01:59:29;;;;;;;40.15;21.50;;;;;;;;;;5038607;28;20112;-80
2022/01/16 02:01:55;;;;;;;36.95;20.77;;;;;;;;;;5038210;28;20061;-81
2022/01/16 02:04:21;;;;;;;40.63;21.42;;;;;;;;;;5022320;28;20041;-82
2022/01/16 02:06:47;;;;;;;40.70;22.08;;;;;;;;;;5022794;28;20068;-81
2022/01/16 02:09:13;;;;;;;39.70;21.85;;;;;;;;;;5026531;28;20123;-84
2022/01/16 02:11:39;;;;;;;38.42;20.90;;;;;;;;;;5025411;28;20049;-80
2022/01/16 02:14:14;;;;;;;35.65;21.45;;;;;;;;;;5025124;28;20052;-83
2022/01/16 02:35:37;;;;;;;44.33;24.08;;;;;;;;;;5043017;28;20033;-83
2022/01/16 02:38:05;;;;;;;44.78;23.50;;;;;;;;;;5026558;28;20045;-84
2022/01/16 02:40:31;;;;;;;41.45;22.83;;;;;;;;;;5042976;28;20037;-83
2022/01/16 02:42:57;;;;;;;47.13;24.67;;;;;;;;;;5044204;28;20038;-81
2022/01/16 02:45:35;;;;;;;48.30;25.02;;;;;;;;;;5028208;28;20037;-82
2022/01/16 02:48:02;;;;;;;47.35;25.38;;;;;;;;;;5042386;28;20441;-82
2022/01/16 02:50:29;;;;;;;46.28;24.65;;;;;;;;;;5026985;28;20041;-82
2022/01/16 02:52:55;;;;;;;45.75;25.85;;;;;;;;;;5058995;28;20045;-83
2022/01/16 02:55:21;;;;;;;52.75;27.10;;;;;;;;;;5044542;28;20478;-81
2022/01/16 02:57:51;;;;;;;50.92;27.30;;;;;;;;;;5044625;28;20059;-82
2022/01/16 03:00:17;;;;;;;52.50;29.20;;;;;;;;;;5059647;28;20037;-80
2022/01/16 03:02:43;;;;;;;56.95;30.95;;;;;;;;;;5044190;28;20033;-82
2022/01/16 03:05:09;;;;;;;54.63;30.35;;;;;;;;;;5044227;28;20449;-82
2022/01/16 03:07:35;;;;;;;56.45;32.20;;;;;;;;;;5044797;28;20060;-83
2022/01/16 03:12:35;;;;;;;62.65;33.20;;;;;;;;;;5065119;28;20048;-81
2022/01/16 03:15:01;;;;;;;60.38;32.88;;;;;;;;;;5067443;28;20045;-81
2022/01/16 03:17:51;;;;;;;62.47;34.20;;;;;;;;;;5054436;28;20025;-84
2022/01/16 03:23:02;;;;;;;68.68;35.72;;;;;;;;;;5072620;28;20037;-80
2022/01/16 03:25:27;;;;;;;70.25;37.15;;;;;;;;;;5058303;28;20044;-81
2022/01/16 03:27:53;;;;;;;71.75;37.78;;;;;;;;;;5064531;28;20368;-82
2022/01/16 03:30:19;;;;;;;74.35;38.38;;;;;;;;;;5044642;28;20102;-82
2022/01/16 03:32:45;;;;;;;70.97;38.33;;;;;;;;;;5062899;28;20045;-79
2022/01/16 03:35:11;;;;;;;77.43;39.20;;;;;;;;;;5047050;28;20412;-78
2022/01/16 03:37:37;;;;;;;79.32;41.40;;;;;;;;;;5064760;28;20080;-81
2022/01/16 03:40:07;;;;;;;77.70;39.60;;;;;;;;;;5064845;28;20044;-81
2022/01/16 03:42:35;;;;;;;75.63;40.47;;;;;;;;;;5069337;28;20460;-82
2022/01/16 03:45:01;;;;;;;83.70;41.28;;;;;;;;;;5065701;28;20066;-82
2022/01/16 03:47:27;;;;;;;79.55;41.35;;;;;;;;;;5065709;28;20076;-82
2022/01/16 03:49:53;;;;;;;85.28;43.47;;;;;;;;;;5049899;28;20148;-83
2022/01/16 03:52:19;;;;;;;86.13;44.78;;;;;;;;;;5069818;28;20053;-82
2022/01/16 03:54:45;;;;;;;82.25;40.75;;;;;;;;;;5062218;28;20021;-81
2022/01/16 03:57:11;;;;;;;81.05;42.78;;;;;;;;;;5062936;28;20045;-81
2022/01/16 03:59:37;;;;;;;80.53;39.85;;;;;;;;;;5062650;28;20096;-81
2022/01/16 04:02:04;;;;;;;83.13;43.05;;;;;;;;;;5060019;28;20025;-82
2022/01/16 04:04:30;;;;;;;80.40;40.65;;;;;;;;;;5080317;28;20453;-78
2022/01/16 04:06:56;;;;;;;82.78;39.88;;;;;;;;;;5070493;28;20037;-84
2022/01/16 04:09:22;;;;;;;78.95;39.53;;;;;;;;;;5047159;28;20041;-83
2022/01/16 04:11:53;;;;;;;79.93;39.33;;;;;;;;;;5047193;28;20040;-79
2022/01/16 04:17:04;;;;;;;72.20;37.42;;;;;;;;;;5063721;28;20037;-83
2022/01/16 04:19:30;;;;;;;72.68;36.92;;;;;;;;;;5047064;28;20041;-83
2022/01/16 04:21:56;;;;;;;77.05;38.88;;;;;;;;;;5063763;28;20040;-84
2022/01/16 04:24:22;;;;;;;73.68;37.10;;;;;;;;;;5046654;28;20072;-82
2022/01/16 04:26:48;;;;;;;68.00;36.40;;;;;;;;;;5045517;28;20090;-79
2022/01/16 04:29:14;;;;;;;77.53;38.60;;;;;;;;;;5061487;28;20064;-78
2022/01/16 04:31:40;;;;;;;73.03;38.45;;;;;;;;;;5061195;28;20100;-80
2022/01/16 04:34:06;;;;;;;69.72;38.97;;;;;;;;;;5043839;28;20040;-80
2022/01/16 04:36:32;;;;;;;76.20;39.90;;;;;;;;;;5044412;28;20071;-79
2022/01/16 04:38:58;;;;;;;76.22;39.53;;;;;;;;;;5061576;28;20098;-82
2022/01/16 04:44:09;;;;;;;79.75;41.42;;;;;;;;;;5063593;28;20037;-82
2022/01/16 04:46:35;;;;;;;75.10;38.78;;;;;;;;;;5062628;28;20467;-81
2022/01/16 04:49:02;;;;;;;85.65;42.70;;;;;;;;;;5049601;28;20083;-80
2022/01/16 04:51:28;;;;;;;80.75;42.47;;;;;;;;;;5062925;28;20067;-80
2022/01/16 04:53:54;;;;;;;91.28;44.70;;;;;;;;;;5055116;28;20516;-81
2022/01/16 04:56:20;;;;;;;94.38;46.60;;;;;;;;;;5065654;28;20103;-82
2022/01/16 04:58:46;;;;;;;92.30;45.20;;;;;;;;;;5045464;28;20041;-81
2022/01/16 05:01:16;;;;;;;90.55;46.08;;;;;;;;;;5062169;28;20044;-80
2022/01/16 05:03:42;;;;;;;94.35;47.22;;;;;;;;;;5043180;28;20075;-82
2022/01/16 05:06:10;;;;;;;102.40;50.13;;;;;;;;;;5042374;28;20032;-81
2022/01/16 05:08:36;;;;;;;95.53;47.50;;;;;;;;;;5058705;28;20385;-80
2022/01/16 05:11:02;;;;;;;100.07;49.38;;;;;;;;;;5042338;28;20041;-80
2022/01/16 05:16:34;;;;;;;104.47;51.85;;;;;;;;;;5060081;28;20037;-82
2022/01/16 05:16:35;;;;;;;102.80;51.25;;;;;;;;;;5060834;28;20051;-80
2022/01/16 05:19:02;;;;;;;104.03;50.63;;;;;;;;;;5060821;28;20435;-82
2022/01/16 05:21:28;;;;;;;109.10;53.40;;;;;;;;;;5060539;28;20037;-79
2022/01/16 05:23:54;;;;;;;106.47;54.40;;;;;;;;;;5061828;28;20052;-80
2022/01/16 05:26:29;;;;;;;103.25;55.28;;;;;;;;;;5063204;28;20040;-79
2022/01/16 05:28:56;;;;;;;111.22;55.55;;;;;;;;;;5058081;28;20071;-81
2022/01/16 05:31:22;;;;;;;114.25;52.80;;;;;;;;;;5071116;28;20037;-81
2022/01/16 05:33:48;;;;;;;112.55;54.25;;;;;;;;;;5047549;28;20041;-79
2022/01/16 05:36:14;;;;;;;110.90;57.95;;;;;;;;;;5067617;28;20051;-78
2022/01/16 05:38:40;;;;;;;111.90;55.67;;;;;;;;;;5064965;28;20101;-80
2022/01/16 05:41:06;;;;;;;121.20;58.08;;;;;;;;;;5051751;28;20053;-83
2022/01/16 05:43:32;;;;;;;108.93;57.03;;;;;;;;;;5061329;28;20044;-83
2022/01/16 05:45:58;;;;;;;116.88;58.28;;;;;;;;;;5045188;28;20441;-82
2022/01/16 05:48:26;;;;;;;114.25;58.47;;;;;;;;;;5062173;28;20051;-82
2022/01/16 05:50:52;;;;;;;118.20;57.55;;;;;;;;;;5059774;28;20792;-79
2022/01/16 05:53:18;;;;;;;117.63;58.33;;;;;;;;;;5059892;28;20119;-81
2022/01/16 05:55:44;;;;;;;116.28;55.85;;;;;;;;;;5044548;28;20140;-79
2022/01/16 05:58:10;;;;;;;111.78;55.92;;;;;;;;;;5044961;28;20078;-77
2022/01/16 06:00:37;;;;;;;118.30;58.47;;;;;;;;;;5066250;28;20037;-79
2022/01/16 06:03:03;;;;;;;119.93;58.72;;;;;;;;;;5048778;28;20453;-82
2022/01/16 06:05:29;;;;;;;118.13;58.05;;;;;;;;;;5060269;28;20475;-82
2022/01/16 06:08:00;;;;;;;108.70;56.30;;;;;;;;;;5060906;28;20098;-81
2022/01/16 06:10:27;;;;;;;120.10;57.72;;;;;;;;;;5049711;28;20049;-81
2022/01/16 06:12:53;;;;;;;122.68;59.30;;;;;;;;;;5047228;28;20513;-81
2022/01/16 06:15:19;;;;;;;130.23;60.42;;;;;;;;;;5043372;28;20120;-81
2022/01/16 06:17:45;;;;;;;123.10;57.83;;;;;;;;;;5059950;28;20041;-80
2022/01/16 06:20:14;;;;;;;127.25;60.70;;;;;;;;;;5060652;28;20029;-83
2022/01/16 06:22:40;;;;;;;138.00;64.53;;;;;;;;;;5044617;28;20051;-83
2022/01/16 06:25:06;;;;;;;131.52;66.18;;;;;;;;;;5058042;28;20033;-79
2022/01/16 06:27:32;;;;;;;140.43;65.57;;;;;;;;;;5055820;28;20132;-82
2022/01/16 06:29:58;;;;;;;132.57;66.63;;;;;;;;;;5041075;28;20068;-80
2022/01/16 06:32:24;;;;;;;143.95;67.40;;;;;;;;;;5039671;28;20051;-80
2022/01/16 06:34:50;;;;;;;131.45;65.72;;;;;;;;;;5056428;28;20040;-83
2022/01/16 06:37:16;;;;;;;133.57;66.63;;;;;;;;;;5056778;28;20124;-82
2022/01/16 06:39:42;;;;;;;138.25;67.07;;;;;;;;;;5056260;28;20037;-82
2022/01/16 06:42:08;;;;;;;137.43;65.70;;;;;;;;;;5040577;28;20029;-81
2022/01/16 06:44:34;;;;;;;132.95;66.93;;;;;;;;;;5066118;28;20037;-81
2022/01/16 06:47:00;;;;;;;133.18;69.03;;;;;;;;;;5075252;28;20041;-81
2022/01/16 06:49:26;;;;;;;144.93;69.63;;;;;;;;;;5071305;28;20040;-79
2022/01/16 06:51:52;;;;;;;135.73;66.35;;;;;;;;;;5049351;28;20052;-80
2022/01/16 06:54:18;;;;;;;141.65;67.68;;;;;;;;;;5051761;28;20457;-80
2022/01/16 06:56:44;;;;;;;126.28;66.65;;;;;;;;;;5069898;28;20056;-80
2022/01/16 06:59:10;;;;;;;134.85;68.63;;;;;;;;;;5069908;28;20045;-80
2022/01/16 07:01:36;;;;;;;140.45;66.95;;;;;;;;;;5053102;28;20065;-80
2022/01/16 07:04:02;;;;;;;136.38;67.82;;;;;;;;;;5067501;28;20043;-81
2022/01/16 07:06:28;;;;;;;132.88;67.38;;;;;;;;;;5063759;28;20094;-82
2022/01/16 07:08:54;;;;;;;140.10;69.20;;;;;;;;;;5064833;28;20029;-80
2022/01/16 07:11:20;;;;;;;136.10;66.57;;;;;;;;;;5072084;28;20119;-81
2022/01/16 07:13:46;;;;;;;130.15;65.07;;;;;;;;;;5064775;28;20025;-80
2022/01/16 07:16:12;;;;;;;129.60;66.65;;;;;;;;;;5067004;28;20044;-81
2022/01/16 07:18:38;;;;;;;137.98;66.82;;;;;;;;;;5050066;28;20037;-84
2022/01/16 07:21:12;;;;;;;135.77;67.53;;;;;;;;;;5051613;28;20065;-83
2022/01/16 07:23:38;;;;;;;128.55;67.15;;;;;;;;;;5067560;28;20091;-80
2022/01/16 07:26:04;;;;;;;135.32;67.50;;;;;;;;;;5068574;28;20033;-79
2022/01/16 07:28:31;;;;;;;135.23;64.40;;;;;;;;;;5049755;28;20119;-80
2022/01/16 07:30:57;;;;;;;132.07;66.25;;;;;;;;;;5050477;28;20037;-80
2022/01/16 07:33:23;;;;;;;132.80;64.97;;;;;;;;;;5054503;28;20045;-80
2022/01/16 07:35:49;;;;;;;125.82;64.45;;;;;;;;;;5051627;28;20043;-82
2022/01/16 07:38:15;;;;;;;126.88;66.75;;;;;;;;;;5066541;28;20044;-80
2022/01/16 07:40:40;;;;;;;125.75;63.85;;;;;;;;;;5051793;28;20120;-79
2022/01/16 07:43:07;;;;;;;126.25;64.15;;;;;;;;;;5069308;28;20041;-81
2022/01/16 07:45:33;;;;;;;113.88;64.32;;;;;;;;;;5049897;28;20040;-81
2022/01/16 07:47:59;;;;;;;124.47;64.90;;;;;;;;;;5066753;28;20113;-82
2022/01/16 07:50:25;;;;;;;127.03;66.20;;;;;;;;;;5050771;28;20041;-80
2022/01/16 07:52:51;;;;;;;133.65;67.65;;;;;;;;;;5048555;28;20037;-83
2022/01/16 07:55:18;;;;;;;131.15;65.82;;;;;;;;;;5049559;28;20041;-82
2022/01/16 07:57:44;;;;;;;125.05;68.82;;;;;;;;;;5048631;28;20136;-80
2022/01/16 08:00:12;;;;;;;131.07;65.97;;;;;;;;;;5078599;28;20033;-81
2022/01/16 08:02:38;;;;;;;129.48;67.40;;;;;;;;;;5058307;28;20053;-80
2022/01/16 08:05:04;;;;;;;129.45;67.10;;;;;;;;;;5068125;28;20029;-83
2022/01/16 08:07:30;;;;;;;123.43;65.10;;;;;;;;;;5068127;28;20418;-82
2022/01/16 08:09:56;;;;;;;119.15;66.55;;;;;;;;;;5067583;28;20056;-81
2022/01/16 08:12:22;;;;;;;127.95;68.20;;;;;;;;;;5068436;28;20040;-83
2022/01/16 08:14:48;;;;;;;126.60;65.72;;;;;;;;;;5068105;28;20051;-80
2022/01/16 08:17:14;;;;;;;133.32;67.30;;;;;;;;;;5049459;28;20416;-82
2022/01/16 08:19:40;;;;;;;128.35;68.43;;;;;;;;;;5047457;28;20048;-80
2022/01/16 08:22:07;;;;;;;138.45;71.60;;;;;;;;;;5065160;28;20452;-79
2022/01/16 08:24:33;;;;;;;131.73;71.10;;;;;;;;;;5047542;28;20146;-80
2022/01/16 08:26:59;;;;;;;126.85;70.80;;;;;;;;;;5050066;28;20037;-81
2022/01/16 08:29:28;;;;;;;129.70;69.03;;;;;;;;;;5060266;28;20041;-81
2022/01/16 08:31:55;;;;;;;137.85;70.60;;;;;;;;;;5060601;28;20037;-78
2022/01/16 08:34:21;;;;;;;133.65;73.20;;;;;;;;;;5066923;28;20033;-83
2022/01/16 08:36:47;;;;;;;136.50;71.93;;;;;;;;;;5048881;28;20063;-79
2022/01/16 08:39:14;;;;;;;134.55;72.20;;;;;;;;;;5050337;28;20037;-80
2022/01/16 08:41:40;;;;;;;140.20;73.30;;;;;;;;;;5054048;28;20089;-83
2022/01/16 08:44:07;;;;;;;129.10;66.38;;;;;;;;;;5037540;28;20040;-83
2022/01/16 08:46:33;;;;;;;134.98;70.13;;;;;;;;;;5038292;28;20041;-78
2022/01/16 08:48:59;;;;;;;131.82;68.68;;;;;;;;;;5037570;28;20041;-83
2022/01/16 08:51:25;;;;;;;127.32;68.78;;;;;;;;;;5033287;28;20095;-81
2022/01/16 08:53:51;;;;;;;140.10;70.43;;;;;;;;;;5034630;28;20056;-82
2022/01/16 08:56:17;;;;;;;130.90;69.13;;;;;;;;;;5035585;28;20049;-81
2022/01/16 08:58:43;;;;;;;130.85;66.47;;;;;;;;;;5037856;28;20033;-81
2022/01/16 09:01:09;;;;;;;130.23;70.57;;;;;;;;;;5060443;28;20036;-82
2022/01/16 09:03:38;;;;;;;122.18;62.53;;;;;;;;;;5053361;28;20064;-83
2022/01/16 09:06:04;;;;;;;122.07;64.00;;;;;;;;;;5069676;28;20061;-84
2022/01/16 09:08:30;;;;;;;114.25;63.92;;;;;;;;;;5051952;28;20060;-84
2022/01/16 09:10:56;;;;;;;114.43;63.85;;;;;;;;;;5059466;28;20047;-81
2022/01/16 09:13:22;;;;;;;121.95;65.30;;;;;;;;;;5070825;28;20456;-84
2022/01/16 09:15:49;;;;;;;120.93;62.65;;;;;;;;;;5055621;28;20040;-83
2022/01/16 09:18:15;;;;;;;113.57;59.88;;;;;;;;;;5068794;28;20049;-84
2022/01/16 09:20:41;;;;;;;114.97;61.67;;;;;;;;;;5064794;28;20033;-84
2022/01/16 09:23:07;;;;;;;115.28;59.08;;;;;;;;;;5050281;28;20064;-83
2022/01/16 09:25:33;;;;;;;119.20;62.90;;;;;;;;;;5062259;28;20048;-83
2022/01/16 09:28:01;;;;;;;119.55;62.25;;;;;;;;;;5047508;28;20098;-84
2022/01/16 09:30:27;;;;;;;127.25;63.70;;;;;;;;;;5065199;28;20102;-83
2022/01/16 09:32:53;;;;;;;108.05;58.97;;;;;;;;;;5050626;28;20041;-84
2022/01/16 09:35:19;;;;;;;112.10;59.70;;;;;;;;;;5041854;28;20097;-82
2022/01/16 09:37:45;;;;;;;107.13;57.83;;;;;;;;;;5045773;28;20041;-82
2022/01/16 09:40:14;;;;;;;106.95;57.05;;;;;;;;;;5047696;28;20056;-82
2022/01/16 09:42:42;;;;;;;104.78;55.08;;;;;;;;;;5051465;28;20041;-85
2022/01/16 09:45:10;;;;;;;102.78;55.45;;;;;;;;;;5074659;28;20060;-84
2022/01/16 09:47:39;;;;;;;101.43;54.53;;;;;;;;;;5055111;28;20036;-83
2022/01/16 09:50:05;;;;;;;102.82;52.70;;;;;;;;;;5077921;28;20047;-84
2022/01/16 09:52:38;;;;;;;98.45;51.72;;;;;;;;;;5077607;28;20079;-84
2022/01/16 09:55:04;;;;;;;88.78;48.78;;;;;;;;;;5073435;28;20041;-84
2022/01/16 09:57:30;;;;;;;82.72;47.28;;;;;;;;;;5066387;28;20067;-83
2022/01/16 09:59:56;;;;;;;85.65;48.30;;;;;;;;;;5060686;28;20033;-85
2022/01/16 10:02:22;;;;;;;85.75;47.13;;;;;;;;;;5043422;28;20047;-84
2022/01/16 10:04:48;;;;;;;89.32;48.17;;;;;;;;;;5043004;28;20036;-82
2022/01/16 10:07:17;;;;;;;85.90;47.08;;;;;;;;;;5044544;28;20033;-83
2022/01/16 10:09:45;;;;;;;83.90;45.95;;;;;;;;;;5061065;28;20044;-84
2022/01/16 10:12:16;;;;;;;86.63;48.22;;;;;;;;;;5044773;28;20804;-84
2022/01/16 10:14:47;;;;;;;88.88;46.55;;;;;;;;;;5055395;28;20044;-80
2022/01/16 10:17:15;;;;;;;91.68;47.40;;;;;;;;;;5042126;28;20047;-83
2022/01/16 10:19:41;;;;;;;80.75;44.20;;;;;;;;;;5025242;28;20042;-82
2022/01/16 10:22:11;;;;;;;85.88;44.03;;;;;;;;;;5041902;28;20044;-82
2022/01/16 10:24:39;;;;;;;85.35;45.17;;;;;;;;;;5044990;28;20441;-82
2022/01/16 10:27:08;;;;;;;88.80;45.70;;;;;;;;;;5041356;28;20089;-81
2022/01/16 10:29:41;;;;;;;85.85;45.13;;;;;;;;;;5039849;28;20045;-82
2022/01/16 10:32:11;;;;;;;78.80;44.20;;;;;;;;;;5024055;28;20107;-83
2022/01/16 10:34:37;;;;;;;84.38;44.90;;;;;;;;;;5025741;28;20038;-83
2022/01/16 10:37:17;;;;;;;80.63;44.00;;;;;;;;;;5048328;28;20041;-83
2022/01/16 10:39:57;;;;;;;69.68;41.17;;;;;;;;;;5033992;28;20045;-79
2022/01/16 10:42:23;;;;;;;79.47;42.40;;;;;;;;;;5031899;28;20044;-80
2022/01/16 10:44:56;;;;;;;79.45;42.50;;;;;;;;;;5026674;28;20052;-80
2022/01/16 10:47:25;;;;;;;73.80;41.53;;;;;;;;;;5043384;28;20099;-81
2022/01/16 10:50:18;;;;;;;74.47;41.25;;;;;;;;;;5025604;28;20038;-83
2022/01/16 10:52:51;;;;;;;75.72;41.72;;;;;;;;;;5041973;28;20042;-81
2022/01/16 10:55:18;;;;;;;78.32;42.42;;;;;;;;;;5043003;28;20042;-82
2022/01/16 10:57:45;;;;;;;84.38;42.47;;;;;;;;;;5043120;28;20461;-79
2022/01/16 11:00:15;;;;;;;76.70;42.17;;;;;;;;;;5026282;28;20038;-80
2022/01/16 11:02:42;;;;;;;79.90;41.17;;;;;;;;;;5043368;28;20064;-81
2022/01/16 11:05:11;;;;;;;79.43;43.10;;;;;;;;;;5038587;28;20034;-80
2022/01/16 11:07:37;;;;;;;74.95;41.63;;;;;;;;;;5040406;28;20100;-83
2022/01/16 11:10:23;;;;;;;73.63;41.30;;;;;;;;;;5043612;28;20041;-82
2022/01/16 11:12:50;;;;;;;80.43;41.00;;;;;;;;;;5022043;28;20049;-81
2022/01/16 11:15:16;;;;;;;82.75;42.33;;;;;;;;;;5037524;28;20045;-81
2022/01/16 11:17:42;;;;;;;80.13;42.05;;;;;;;;;;5022020;28;20045;-80
2022/01/16 11:20:09;;;;;;;79.43;41.47;;;;;;;;;;5039399;28;20034;-82
2022/01/16 11:22:55;;;;;;;74.72;40.50;;;;;;;;;;5021519;28;20037;-80
2022/01/16 11:25:30;;;;;;;84.75;41.40;;;;;;;;;;5038892;28;20041;-79
2022/01/16 11:27:56;;;;;;;75.30;39.60;;;;;;;;;;5023956;28;20047;-81
2022/01/16 11:30:22;;;;;;;71.78;39.85;;;;;;;;;;5022229;28;20044;-82
2022/01/16 11:32:48;;;;;;;74.28;41.17;;;;;;;;;;5022480;28;20441;-82
2022/01/16 11:35:14;;;;;;;78.60;41.65;;;;;;;;;;5026211;28;20037;-81
2022/01/16 11:37:40;;;;;;;76.93;41.90;;;;;;;;;;5046138;28;20049;-81
2022/01/16 11:40:27;;;;;;;74.30;41.65;;;;;;;;;;5044051;28;20064;-81
2022/01/16 11:43:12;;;;;;;76.13;40.92;;;;;;;;;;5026995;28;20047;-80
2022/01/16 11:45:45;;;;;;;88.50;43.65;;;;;;;;;;5045922;28;20033;-81
2022/01/16 11:48:11;;;;;;;82.72;43.13;;;;;;;;;;5043399;28;20041;-79
2022/01/16 11:50:37;;;;;;;78.50;43.08;;;;;;;;;;5042586;28;20041;-79
2022/01/16 11:53:03;;;;;;;79.95;42.53;;;;;;;;;;5026730;28;20052;-82
2022/01/16 11:55:35;;;;;;;79.78;43.55;;;;;;;;;;5029713;28;20037;-82
2022/01/16 11:58:01;;;;;;;80.95;43.42;;;;;;;;;;5026394;28;20354;-84
2022/01/16 12:00:48;;;;;;;78.13;41.38;;;;;;;;;;5027398;28;20045;-81
2022/01/16 12:03:36;;;;;;;78.43;44.15;;;;;;;;;;5048432;28;20096;-82
2022/01/16 12:06:37;;;;;;;88.40;46.90;;;;;;;;;;5042851;28;20038;-80
2022/01/16 12:09:11;;;;;;;93.53;45.65;;;;;;;;;;5045405;28;20109;-79
2022/01/16 12:11:38;;;;;;;84.82;45.00;;;;;;;;;;5045918;28;20433;-83
2022/01/16 12:14:04;;;;;;;84.85;45.03;;;;;;;;;;5029667;28;20053;-79
2022/01/16 12:16:43;;;;;;;90.07;45.17;;;;;;;;;;5046358;28;20044;-82
2022/01/16 12:19:42;;;;;;;87.20;44.20;;;;;;;;;;5045976;28;20045;-82
2022/01/16 12:22:09;;;;;;;87.88;41.50;;;;;;;;;;5047705;28;20072;-81
2022/01/16 12:24:40;;;;;;;88.00;45.92;;;;;;;;;;5048074;28;20029;-82
2022/01/16 12:27:21;;;;;;;91.75;46.28;;;;;;;;;;5046310;28;20041;-81
2022/01/16 12:30:06;;;;;;;88.47;46.38;;;;;;;;;;5046543;28;20041;-78
2022/01/16 12:32:50;;;;;;;90.53;46.38;;;;;;;;;;5042608;28;20037;-82
2022/01/16 12:35:36;;;;;;;90.70;47.05;;;;;;;;;;5045175;28;20042;-78
2022/01/16 12:38:22;;;;;;;86.28;44.95;;;;;;;;;;5043732;28;20041;-82
2022/01/16 12:40:51;;;;;;;93.40;45.10;;;;;;;;;;5026216;28;20091;-81
2022/01/16 12:43:26;;;;;;;95.10;45.67;;;;;;;;;;5041564;28;20376;-79
2022/01/16 12:45:53;;;;;;;95.47;46.08;;;;;;;;;;5050501;28;20041;-82
2022/01/16 12:48:19;;;;;;;95.18;46.70;;;;;;;;;;5035247;28;20045;-81
2022/01/16 12:50:45;;;;;;;90.72;47.03;;;;;;;;;;5035986;28;20043;-82
2022/01/16 12:53:12;;;;;;;87.68;44.00;;;;;;;;;;5039942;28;20028;-82
2022/01/16 12:55:38;;;;;;;96.93;47.47;;;;;;;;;;5042400;28;20033;-81
2022/01/16 12:58:15;;;;;;;90.20;44.67;;;;;;;;;;5042419;28;20052;-83
2022/01/16 13:01:00;;;;;;;90.55;45.78;;;;;;;;;;5029581;28;20064;-83
2022/01/16 13:03:26;;;;;;;84.55;44.25;;;;;;;;;;5041136;28;20037;-82
2022/01/16 13:06:02;;;;;;;90.82;45.55;;;;;;;;;;5041459;28;20033;-82
2022/01/16 13:08:28;;;;;;;92.45;46.00;;;;;;;;;;5046985;28;20045;-83
2022/01/16 13:11:13;;;;;;;93.75;45.97;;;;;;;;;;5028130;28;20046;-81
2022/01/16 13:13:38;;;;;;;91.50;45.25;;;;;;;;;;5043251;28;20099;-81
2022/01/16 13:16:37;;;;;;;91.85;46.92;;;;;;;;;;5043837;28;20049;-81
2022/01/16 13:19:16;;;;;;;95.88;45.08;;;;;;;;;;5054048;28;20141;-81
2022/01/16 13:21:42;;;;;;;98.40;48.28;;;;;;;;;;5027356;28;20037;-80
2022/01/16 13:24:08;;;;;;;95.80;45.13;;;;;;;;;;5045057;28;20045;-84
2022/01/16 13:26:34;;;;;;;99.07;47.17;;;;;;;;;;5030106;28;20041;-81
2022/01/16 13:29:01;;;;;;;89.60;44.67;;;;;;;;;;5045183;28;20041;-83
2022/01/16 13:31:27;;;;;;;93.53;46.45;;;;;;;;;;5030320;28;20041;-82
2022/01/16 13:34:07;;;;;;;93.00;46.85;;;;;;;;;;5046944;28;20044;-83
2022/01/16 13:36:33;;;;;;;92.13;46.60;;;;;;;;;;5032877;28;20037;-82
2022/01/16 13:38:59;;;;;;;94.47;44.45;;;;;;;;;;5064206;28;20029;-83
2022/01/16 13:41:25;;;;;;;89.18;44.70;;;;;;;;;;5057966;28;20025;-82
2022/01/16 13:43:51;;;;;;;90.63;44.72;;;;;;;;;;5061732;28;20084;-85
2022/01/16 13:46:17;;;;;;;94.80;45.72;;;;;;;;;;5037470;28;20068;-81
2022/01/16 13:48:43;;;;;;;89.25;44.85;;;;;;;;;;5056937;28;20038;-83
2022/01/16 13:51:09;;;;;;;88.38;43.85;;;;;;;;;;5046558;28;20465;-83
2022/01/16 13:53:35;;;;;;;88.38;44.88;;;;;;;;;;5046684;28;20045;-81
2022/01/16 13:56:05;;;;;;;92.63;44.92;;;;;;;;;;5043466;28;20073;-82
2022/01/16 13:58:32;;;;;;;90.05;44.40;;;;;;;;;;5043305;28;20083;-81
2022/01/16 14:01:01;;;;;;;90.93;44.28;;;;;;;;;;5041568;28;20400;-83
2022/01/16 14:03:28;;;;;;;83.57;42.33;;;;;;;;;;5041131;28;20041;-81
2022/01/16 14:05:54;;;;;;;82.35;39.35;;;;;;;;;;5025907;28;20048;-82
2022/01/16 14:08:20;;;;;;;84.20;42.10;;;;;;;;;;5024856;28;20075;-79
2022/01/16 14:10:46;;;;;;;82.05;40.55;;;;;;;;;;5060055;28;20053;-80
2022/01/16 14:13:12;;;;;;;80.18;39.78;;;;;;;;;;5042484;28;20041;-81
2022/01/16 14:15:39;;;;;;;76.55;39.65;;;;;;;;;;5041907;28;20044;-82
2022/01/16 14:18:39;;;;;;;82.15;37.63;;;;;;;;;;5058990;28;20041;-82
2022/01/16 14:21:58;;;;;;;76.18;37.53;;;;;;;;;;5040689;28;20108;-79
2022/01/16 14:23:40;;;;;;;79.78;36.92;;;;;;;;;;5041546;28;20453;-83
2022/01/16 14:26:06;;;;;;;76.60;37.05;;;;;;;;;;5025781;28;20057;-80
2022/01/16 14:28:35;;;;;;;69.22;36.60;;;;;;;;;;5031241;28;20048;-81
2022/01/16 14:31:02;;;;;;;75.35;36.72;;;;;;;;;;5074017;28;20036;-80
2022/01/16 14:33:28;;;;;;;74.63;37.45;;;;;;;;;;5068860;28;20053;-81
2022/01/16 14:35:54;;;;;;;68.80;35.67;;;;;;;;;;5059933;28;20037;-79
2022/01/16 14:38:20;;;;;;;71.20;36.35;;;;;;;;;;5044560;28;20073;-80
2022/01/16 14:40:46;;;;;;;76.68;37.38;;;;;;;;;;5043831;28;20536;-80
2022/01/16 14:43:18;;;;;;;66.40;35.20;;;;;;;;;;5048417;28;20089;-80
2022/01/16 14:45:44;;;;;;;69.22;36.83;;;;;;;;;;5042438;28;20476;-83
2022/01/16 14:48:10;;;;;;;72.65;36.58;;;;;;;;;;5039042;28;20060;-81
2022/01/16 14:50:42;;;;;;;75.25;36.70;;;;;;;;;;5039746;28;20373;-83
2022/01/16 14:53:08;;;;;;;81.35;37.40;;;;;;;;;;5028558;28;20056;-79
2022/01/16 14:55:37;;;;;;;66.55;35.45;;;;;;;;;;5036936;28;20077;-82
2022/01/16 14:58:03;;;;;;;74.65;36.95;;;;;;;;;;5033771;28;20052;-82
2022/01/16 15:00:29;;;;;;;70.55;37.00;;;;;;;;;;5043988;28;20083;-81